sensor_id;sensor_type;location;lat;lon;timestamp;P1;durP1;ratioP1;P2;durP2;ratioP2
22939;SDS011;11636;52.086;5.090;2022-11-11T00:00:01;23.42;;;12.57;;
22939;SDS011;11636;52.086;5.090;2022-11-11T00:02:36;21.98;;;12.57;;
22939;SDS011;11636;52.086;5.090;2022-11-11T00:05:03;21.25;;;13.43;;
22939;SDS011;11636;52.086;5.090;2022-11-11T00:07:37;25.75;;;14.43;;
22939;SDS011;11636;52.086;5.090;2022-11-11T00:10:04;23.08;;;14.85;;
22939;SDS011;11636;52.086;5.090;2022-11-11T00:12:39;21.40;;;14.38;;
22939;SDS011;11636;52.086;5.090;2022-11-11T00:15:06;27.30;;;16.60;;
22939;SDS011;11636;52.086;5.090;2022-11-11T00:17:40;33.05;;;17.90;;
22939;SDS011;11636;52.086;5.090;2022-11-11T00:20:32;29.98;;;18.65;;
22939;SDS011;11636;52.086;5.090;2022-11-11T00:23:31;31.98;;;19.33;;
22939;SDS011;11636;52.086;5.090;2022-11-11T00:26:23;28.60;;;18.80;;
22939;SDS011;11636;52.086;5.090;2022-11-11T00:29:05;28.85;;;20.90;;
22939;SDS011;11636;52.086;5.090;2022-11-11T00:31:41;28.98;;;20.63;;
22939;SDS011;11636;52.086;5.090;2022-11-11T00:34:26;30.10;;;19.70;;
22939;SDS011;11636;52.086;5.090;2022-11-11T00:37:01;33.28;;;22.33;;
22939;SDS011;11636;52.086;5.090;2022-11-11T00:39:28;30.35;;;21.92;;
22939;SDS011;11636;52.086;5.090;2022-11-11T00:42:03;28.52;;;22.02;;
22939;SDS011;11636;52.086;5.090;2022-11-11T00:44:36;33.15;;;21.58;;
22939;SDS011;11636;52.086;5.090;2022-11-11T00:47:09;31.52;;;21.90;;
22939;SDS011;11636;52.086;5.090;2022-11-11T00:50:02;31.70;;;22.33;;
22939;SDS011;11636;52.086;5.090;2022-11-11T00:52:55;30.63;;;21.10;;
22939;SDS011;11636;52.086;5.090;2022-11-11T00:55:28;30.85;;;20.80;;
22939;SDS011;11636;52.086;5.090;2022-11-11T00:58:01;32.38;;;22.25;;
22939;SDS011;11636;52.086;5.090;2022-11-11T01:00:31;31.73;;;21.35;;
22939;SDS011;11636;52.086;5.090;2022-11-11T01:03:01;32.35;;;21.90;;
22939;SDS011;11636;52.086;5.090;2022-11-11T01:05:36;26.23;;;19.30;;
22939;SDS011;11636;52.086;5.090;2022-11-11T01:08:03;28.80;;;20.40;;
22939;SDS011;11636;52.086;5.090;2022-11-11T01:10:31;28.90;;;21.23;;
22939;SDS011;11636;52.086;5.090;2022-11-11T01:13:16;28.52;;;20.77;;
22939;SDS011;11636;52.086;5.090;2022-11-11T01:15:52;25.00;;;19.88;;
22939;SDS011;11636;52.086;5.090;2022-11-11T01:18:23;27.48;;;19.05;;
22939;SDS011;11636;52.086;5.090;2022-11-11T01:23:32;27.80;;;21.02;;
22939;SDS011;11636;52.086;5.090;2022-11-11T01:26:06;36.45;;;23.30;;
22939;SDS011;11636;52.086;5.090;2022-11-11T01:28:47;31.27;;;22.77;;
22939;SDS011;11636;52.086;5.090;2022-11-11T01:31:15;36.83;;;24.65;;
22939;SDS011;11636;52.086;5.090;2022-11-11T01:33:48;30.73;;;22.50;;
22939;SDS011;11636;52.086;5.090;2022-11-11T01:36:23;30.33;;;21.58;;
22939;SDS011;11636;52.086;5.090;2022-11-11T01:38:52;32.55;;;23.00;;
22939;SDS011;11636;52.086;5.090;2022-11-11T01:41:23;33.50;;;22.50;;
22939;SDS011;11636;52.086;5.090;2022-11-11T01:46:59;32.63;;;21.98;;
22939;SDS011;11636;52.086;5.090;2022-11-11T01:49:49;32.67;;;22.35;;
22939;SDS011;11636;52.086;5.090;2022-11-11T01:52:33;29.10;;;21.90;;
22939;SDS011;11636;52.086;5.090;2022-11-11T01:57:47;29.60;;;22.67;;
22939;SDS011;11636;52.086;5.090;2022-11-11T02:00:19;33.15;;;21.60;;
22939;SDS011;11636;52.086;5.090;2022-11-11T02:02:57;28.98;;;21.13;;
22939;SDS011;11636;52.086;5.090;2022-11-11T02:05:29;27.65;;;20.65;;
22939;SDS011;11636;52.086;5.090;2022-11-11T02:08:17;27.85;;;20.00;;
22939;SDS011;11636;52.086;5.090;2022-11-11T02:11:00;29.98;;;22.33;;
22939;SDS011;11636;52.086;5.090;2022-11-11T02:13:41;29.58;;;20.77;;
22939;SDS011;11636;52.086;5.090;2022-11-11T02:16:28;30.70;;;21.75;;
22939;SDS011;11636;52.086;5.090;2022-11-11T02:19:01;34.33;;;23.55;;
22939;SDS011;11636;52.086;5.090;2022-11-11T02:21:39;37.05;;;24.73;;
22939;SDS011;11636;52.086;5.090;2022-11-11T02:24:17;27.23;;;19.58;;
22939;SDS011;11636;52.086;5.090;2022-11-11T02:26:47;31.67;;;21.00;;
22939;SDS011;11636;52.086;5.090;2022-11-11T02:29:23;32.95;;;23.30;;
22939;SDS011;11636;52.086;5.090;2022-11-11T02:31:51;38.80;;;26.55;;
22939;SDS011;11636;52.086;5.090;2022-11-11T02:34:29;35.60;;;25.05;;
22939;SDS011;11636;52.086;5.090;2022-11-11T02:36:58;35.72;;;23.27;;
22939;SDS011;11636;52.086;5.090;2022-11-11T02:39:33;33.63;;;23.73;;
22939;SDS011;11636;52.086;5.090;2022-11-11T02:42:27;27.70;;;21.27;;
22939;SDS011;11636;52.086;5.090;2022-11-11T02:45:06;36.58;;;24.63;;
22939;SDS011;11636;52.086;5.090;2022-11-11T02:47:33;33.60;;;23.20;;
22939;SDS011;11636;52.086;5.090;2022-11-11T02:50:07;31.40;;;22.58;;
22939;SDS011;11636;52.086;5.090;2022-11-11T02:52:34;32.22;;;21.92;;
22939;SDS011;11636;52.086;5.090;2022-11-11T02:55:08;28.83;;;21.23;;
22939;SDS011;11636;52.086;5.090;2022-11-11T02:57:35;30.75;;;23.30;;
22939;SDS011;11636;52.086;5.090;2022-11-11T03:00:10;37.53;;;24.58;;
22939;SDS011;11636;52.086;5.090;2022-11-11T03:02:37;32.97;;;22.90;;
22939;SDS011;11636;52.086;5.090;2022-11-11T03:05:11;33.70;;;22.70;;
22939;SDS011;11636;52.086;5.090;2022-11-11T03:07:38;36.28;;;24.50;;
22939;SDS011;11636;52.086;5.090;2022-11-11T03:10:12;31.65;;;23.15;;
22939;SDS011;11636;52.086;5.090;2022-11-11T03:12:39;28.15;;;20.50;;
22939;SDS011;11636;52.086;5.090;2022-11-11T03:15:13;28.73;;;22.10;;
22939;SDS011;11636;52.086;5.090;2022-11-11T03:17:39;32.35;;;22.00;;
22939;SDS011;11636;52.086;5.090;2022-11-11T03:20:09;24.23;;;18.10;;
22939;SDS011;11636;52.086;5.090;2022-11-11T03:23:06;28.33;;;19.33;;
22939;SDS011;11636;52.086;5.090;2022-11-11T03:25:48;25.17;;;19.10;;
22939;SDS011;11636;52.086;5.090;2022-11-11T03:28:26;23.35;;;18.17;;
22939;SDS011;11636;52.086;5.090;2022-11-11T03:30:58;26.85;;;20.48;;
22939;SDS011;11636;52.086;5.090;2022-11-11T03:33:29;32.17;;;21.63;;
22939;SDS011;11636;52.086;5.090;2022-11-11T03:35:56;33.30;;;23.92;;
22939;SDS011;11636;52.086;5.090;2022-11-11T03:38:29;27.27;;;20.80;;
22939;SDS011;11636;52.086;5.090;2022-11-11T03:40:56;28.63;;;20.35;;
22939;SDS011;11636;52.086;5.090;2022-11-11T03:43:27;24.88;;;18.67;;
22939;SDS011;11636;52.086;5.090;2022-11-11T03:46:03;33.38;;;23.83;;
22939;SDS011;11636;52.086;5.090;2022-11-11T03:48:31;31.88;;;22.98;;
22939;SDS011;11636;52.086;5.090;2022-11-11T03:51:06;37.50;;;23.98;;
22939;SDS011;11636;52.086;5.090;2022-11-11T03:53:32;32.45;;;22.48;;
22939;SDS011;11636;52.086;5.090;2022-11-11T03:55:59;28.35;;;20.83;;
22939;SDS011;11636;52.086;5.090;2022-11-11T03:58:33;35.20;;;24.20;;
22939;SDS011;11636;52.086;5.090;2022-11-11T04:01:05;28.55;;;21.40;;
22939;SDS011;11636;52.086;5.090;2022-11-11T04:03:58;28.80;;;20.30;;
22939;SDS011;11636;52.086;5.090;2022-11-11T04:06:50;30.42;;;21.52;;
22939;SDS011;11636;52.086;5.090;2022-11-11T04:09:36;33.58;;;21.83;;
22939;SDS011;11636;52.086;5.090;2022-11-11T04:12:28;30.60;;;20.73;;
22939;SDS011;11636;52.086;5.090;2022-11-11T04:14:56;25.85;;;18.90;;
22939;SDS011;11636;52.086;5.090;2022-11-11T04:17:48;27.17;;;19.25;;
22939;SDS011;11636;52.086;5.090;2022-11-11T04:20:29;29.20;;;21.42;;
22939;SDS011;11636;52.086;5.090;2022-11-11T04:23:30;30.42;;;22.42;;
22939;SDS011;11636;52.086;5.090;2022-11-11T04:25:59;28.38;;;21.02;;
22939;SDS011;11636;52.086;5.090;2022-11-11T04:28:34;35.17;;;23.45;;
22939;SDS011;11636;52.086;5.090;2022-11-11T04:31:19;27.10;;;20.05;;
22939;SDS011;11636;52.086;5.090;2022-11-11T04:33:58;30.17;;;21.52;;
22939;SDS011;11636;52.086;5.090;2022-11-11T04:36:25;30.75;;;21.60;;
22939;SDS011;11636;52.086;5.090;2022-11-11T04:38:59;27.92;;;21.05;;
22939;SDS011;11636;52.086;5.090;2022-11-11T04:41:51;30.20;;;20.33;;
22939;SDS011;11636;52.086;5.090;2022-11-11T04:44:34;23.95;;;17.38;;
22939;SDS011;11636;52.086;5.090;2022-11-11T04:47:20;26.35;;;19.20;;
22939;SDS011;11636;52.086;5.090;2022-11-11T04:49:54;27.80;;;19.05;;
22939;SDS011;11636;52.086;5.090;2022-11-11T04:52:32;24.83;;;18.83;;
22939;SDS011;11636;52.086;5.090;2022-11-11T04:55:06;27.23;;;19.42;;
22939;SDS011;11636;52.086;5.090;2022-11-11T04:57:59;27.75;;;20.80;;
22939;SDS011;11636;52.086;5.090;2022-11-11T05:00:26;32.97;;;22.70;;
22939;SDS011;11636;52.086;5.090;2022-11-11T05:03:09;29.85;;;22.15;;
22939;SDS011;11636;52.086;5.090;2022-11-11T05:05:57;25.00;;;19.17;;
22939;SDS011;11636;52.086;5.090;2022-11-11T05:08:50;26.23;;;18.85;;
22939;SDS011;11636;52.086;5.090;2022-11-11T05:11:33;25.00;;;19.45;;
22939;SDS011;11636;52.086;5.090;2022-11-11T05:14:01;25.63;;;18.95;;
22939;SDS011;11636;52.086;5.090;2022-11-11T05:16:56;28.92;;;19.02;;
22939;SDS011;11636;52.086;5.090;2022-11-11T05:19:50;24.25;;;18.48;;
22939;SDS011;11636;52.086;5.090;2022-11-11T05:22:43;22.35;;;17.00;;
22939;SDS011;11636;52.086;5.090;2022-11-11T05:25:10;27.55;;;19.33;;
22939;SDS011;11636;52.086;5.090;2022-11-11T05:27:57;26.02;;;18.83;;
22939;SDS011;11636;52.086;5.090;2022-11-11T05:30:31;23.98;;;18.25;;
22939;SDS011;11636;52.086;5.090;2022-11-11T05:33:00;23.05;;;16.90;;
22939;SDS011;11636;52.086;5.090;2022-11-11T05:35:35;25.60;;;17.05;;
22939;SDS011;11636;52.086;5.090;2022-11-11T05:38:08;20.33;;;15.15;;
22939;SDS011;11636;52.086;5.090;2022-11-11T05:40:54;21.45;;;16.33;;
22939;SDS011;11636;52.086;5.090;2022-11-11T05:43:21;24.10;;;17.80;;
22939;SDS011;11636;52.086;5.090;2022-11-11T05:45:54;20.55;;;15.65;;
22939;SDS011;11636;52.086;5.090;2022-11-11T05:48:27;20.42;;;15.85;;
22939;SDS011;11636;52.086;5.090;2022-11-11T05:51:00;21.02;;;15.48;;
22939;SDS011;11636;52.086;5.090;2022-11-11T05:53:27;24.02;;;17.75;;
22939;SDS011;11636;52.086;5.090;2022-11-11T05:56:00;24.33;;;17.50;;
22939;SDS011;11636;52.086;5.090;2022-11-11T05:58:35;26.10;;;18.27;;
22939;SDS011;11636;52.086;5.090;2022-11-11T06:01:14;22.42;;;16.20;;
22939;SDS011;11636;52.086;5.090;2022-11-11T06:03:41;22.35;;;15.40;;
22939;SDS011;11636;52.086;5.090;2022-11-11T06:06:15;22.38;;;16.30;;
22939;SDS011;11636;52.086;5.090;2022-11-11T06:08:49;22.38;;;16.90;;
22939;SDS011;11636;52.086;5.090;2022-11-11T06:11:23;19.95;;;14.88;;
22939;SDS011;11636;52.086;5.090;2022-11-11T06:13:58;23.15;;;16.13;;
22939;SDS011;11636;52.086;5.090;2022-11-11T06:16:25;21.02;;;15.07;;
22939;SDS011;11636;52.086;5.090;2022-11-11T06:18:58;25.48;;;15.43;;
22939;SDS011;11636;52.086;5.090;2022-11-11T06:21:25;23.52;;;16.80;;
22939;SDS011;11636;52.086;5.090;2022-11-11T06:23:59;22.48;;;16.23;;
22939;SDS011;11636;52.086;5.090;2022-11-11T06:26:26;22.80;;;16.90;;
22939;SDS011;11636;52.086;5.090;2022-11-11T06:29:01;23.40;;;16.88;;
22939;SDS011;11636;52.086;5.090;2022-11-11T06:31:29;23.52;;;17.63;;
22939;SDS011;11636;52.086;5.090;2022-11-11T06:34:03;21.20;;;15.45;;
22939;SDS011;11636;52.086;5.090;2022-11-11T06:36:29;28.75;;;18.40;;
22939;SDS011;11636;52.086;5.090;2022-11-11T06:39:03;24.75;;;16.77;;
22939;SDS011;11636;52.086;5.090;2022-11-11T06:41:30;25.20;;;17.45;;
22939;SDS011;11636;52.086;5.090;2022-11-11T06:44:03;21.38;;;16.17;;
22939;SDS011;11636;52.086;5.090;2022-11-11T06:46:30;26.10;;;17.17;;
22939;SDS011;11636;52.086;5.090;2022-11-11T06:49:03;24.08;;;17.42;;
22939;SDS011;11636;52.086;5.090;2022-11-11T06:51:36;27.33;;;18.33;;
22939;SDS011;11636;52.086;5.090;2022-11-11T06:54:09;28.15;;;19.33;;
22939;SDS011;11636;52.086;5.090;2022-11-11T06:56:35;25.10;;;17.90;;
22939;SDS011;11636;52.086;5.090;2022-11-11T06:59:02;26.60;;;19.52;;
22939;SDS011;11636;52.086;5.090;2022-11-11T07:01:36;25.80;;;18.27;;
22939;SDS011;11636;52.086;5.090;2022-11-11T07:04:03;24.33;;;18.17;;
22939;SDS011;11636;52.086;5.090;2022-11-11T07:06:30;24.30;;;16.63;;
22939;SDS011;11636;52.086;5.090;2022-11-11T07:09:03;18.88;;;14.73;;
22939;SDS011;11636;52.086;5.090;2022-11-11T07:11:36;23.00;;;16.38;;
22939;SDS011;11636;52.086;5.090;2022-11-11T07:14:03;19.65;;;15.13;;
22939;SDS011;11636;52.086;5.090;2022-11-11T07:16:36;19.45;;;15.10;;
22939;SDS011;11636;52.086;5.090;2022-11-11T07:19:10;19.40;;;14.02;;
22939;SDS011;11636;52.086;5.090;2022-11-11T07:21:37;22.70;;;16.60;;
22939;SDS011;11636;52.086;5.090;2022-11-11T07:24:11;19.60;;;14.07;;
22939;SDS011;11636;52.086;5.090;2022-11-11T07:26:44;22.67;;;14.32;;
22939;SDS011;11636;52.086;5.090;2022-11-11T07:29:17;21.27;;;14.40;;
22939;SDS011;11636;52.086;5.090;2022-11-11T07:31:44;20.48;;;15.45;;
22939;SDS011;11636;52.086;5.090;2022-11-11T07:34:20;16.02;;;13.43;;
22939;SDS011;11636;52.086;5.090;2022-11-11T07:36:55;17.17;;;13.85;;
22939;SDS011;11636;52.086;5.090;2022-11-11T07:39:28;19.08;;;14.15;;
22939;SDS011;11636;52.086;5.090;2022-11-11T07:41:55;19.58;;;14.65;;
22939;SDS011;11636;52.086;5.090;2022-11-11T07:44:28;19.35;;;13.25;;
22939;SDS011;11636;52.086;5.090;2022-11-11T07:46:56;20.88;;;15.15;;
22939;SDS011;11636;52.086;5.090;2022-11-11T07:49:29;19.80;;;14.18;;
22939;SDS011;11636;52.086;5.090;2022-11-11T07:51:56;18.88;;;13.43;;
22939;SDS011;11636;52.086;5.090;2022-11-11T07:54:29;19.95;;;12.73;;
22939;SDS011;11636;52.086;5.090;2022-11-11T07:57:03;16.27;;;12.45;;
22939;SDS011;11636;52.086;5.090;2022-11-11T07:59:37;16.90;;;11.60;;
22939;SDS011;11636;52.086;5.090;2022-11-11T08:02:04;17.30;;;12.48;;
22939;SDS011;11636;52.086;5.090;2022-11-11T08:04:31;19.25;;;14.02;;
22939;SDS011;11636;52.086;5.090;2022-11-11T08:07:04;18.70;;;13.45;;
22939;SDS011;11636;52.086;5.090;2022-11-11T08:09:31;16.95;;;12.73;;
22939;SDS011;11636;52.086;5.090;2022-11-11T08:12:05;17.20;;;12.95;;
22939;SDS011;11636;52.086;5.090;2022-11-11T08:14:50;18.35;;;13.18;;
22939;SDS011;11636;52.086;5.090;2022-11-11T08:17:35;18.95;;;13.23;;
22939;SDS011;11636;52.086;5.090;2022-11-11T08:20:08;20.23;;;13.88;;
22939;SDS011;11636;52.086;5.090;2022-11-11T08:22:42;18.83;;;14.15;;
22939;SDS011;11636;52.086;5.090;2022-11-11T08:25:29;25.67;;;17.00;;
22939;SDS011;11636;52.086;5.090;2022-11-11T08:28:04;25.05;;;17.52;;
22939;SDS011;11636;52.086;5.090;2022-11-11T08:30:31;21.05;;;15.98;;
22939;SDS011;11636;52.086;5.090;2022-11-11T08:33:05;26.17;;;16.83;;
22939;SDS011;11636;52.086;5.090;2022-11-11T08:35:58;18.65;;;14.27;;
22939;SDS011;11636;52.086;5.090;2022-11-11T08:38:26;20.98;;;15.43;;
22939;SDS011;11636;52.086;5.090;2022-11-11T08:41:00;24.23;;;16.13;;
22939;SDS011;11636;52.086;5.090;2022-11-11T08:43:33;19.98;;;15.60;;
22939;SDS011;11636;52.086;5.090;2022-11-11T08:46:03;23.77;;;15.93;;
22939;SDS011;11636;52.086;5.090;2022-11-11T08:48:37;25.48;;;18.67;;
22939;SDS011;11636;52.086;5.090;2022-11-11T08:51:10;25.83;;;18.42;;
22939;SDS011;11636;52.086;5.090;2022-11-11T08:53:37;20.67;;;15.98;;
22939;SDS011;11636;52.086;5.090;2022-11-11T08:56:10;21.02;;;16.23;;
22939;SDS011;11636;52.086;5.090;2022-11-11T08:58:37;20.10;;;14.82;;
22939;SDS011;11636;52.086;5.090;2022-11-11T09:01:14;25.98;;;18.23;;
22939;SDS011;11636;52.086;5.090;2022-11-11T09:03:41;25.35;;;17.88;;
22939;SDS011;11636;52.086;5.090;2022-11-11T09:06:17;30.65;;;20.15;;
22939;SDS011;11636;52.086;5.090;2022-11-11T09:08:50;27.48;;;19.38;;
22939;SDS011;11636;52.086;5.090;2022-11-11T09:11:23;24.80;;;18.88;;
22939;SDS011;11636;52.086;5.090;2022-11-11T09:13:50;32.08;;;20.38;;
22939;SDS011;11636;52.086;5.090;2022-11-11T09:16:23;23.88;;;18.25;;
22939;SDS011;11636;52.086;5.090;2022-11-11T09:18:50;22.70;;;16.52;;
22939;SDS011;11636;52.086;5.090;2022-11-11T09:21:23;22.23;;;16.13;;
22939;SDS011;11636;52.086;5.090;2022-11-11T09:23:50;26.63;;;18.63;;
22939;SDS011;11636;52.086;5.090;2022-11-11T09:26:23;23.90;;;17.20;;
22939;SDS011;11636;52.086;5.090;2022-11-11T09:28:50;24.05;;;18.13;;
22939;SDS011;11636;52.086;5.090;2022-11-11T09:31:23;24.90;;;18.20;;
22939;SDS011;11636;52.086;5.090;2022-11-11T09:34:10;29.13;;;19.20;;
22939;SDS011;11636;52.086;5.090;2022-11-11T09:36:44;22.92;;;17.63;;
22939;SDS011;11636;52.086;5.090;2022-11-11T09:39:17;22.65;;;17.48;;
22939;SDS011;11636;52.086;5.090;2022-11-11T09:44:57;27.48;;;19.42;;
22939;SDS011;11636;52.086;5.090;2022-11-11T09:53:13;20.98;;;16.63;;
22939;SDS011;11636;52.086;5.090;2022-11-11T09:55:51;23.48;;;17.25;;
22939;SDS011;11636;52.086;5.090;2022-11-11T09:59:00;23.05;;;16.48;;
22939;SDS011;11636;52.086;5.090;2022-11-11T10:01:52;24.92;;;18.58;;
22939;SDS011;11636;52.086;5.090;2022-11-11T10:04:24;27.80;;;20.15;;
22939;SDS011;11636;52.086;5.090;2022-11-11T10:07:12;26.65;;;19.85;;
22939;SDS011;11636;52.086;5.090;2022-11-11T10:09:58;28.02;;;19.40;;
22939;SDS011;11636;52.086;5.090;2022-11-11T10:12:40;28.08;;;20.83;;
22939;SDS011;11636;52.086;5.090;2022-11-11T10:15:13;26.90;;;18.75;;
22939;SDS011;11636;52.086;5.090;2022-11-11T10:17:52;26.65;;;19.80;;
22939;SDS011;11636;52.086;5.090;2022-11-11T10:20:46;30.00;;;20.58;;
22939;SDS011;11636;52.086;5.090;2022-11-11T10:23:31;25.83;;;19.52;;
22939;SDS011;11636;52.086;5.090;2022-11-11T10:26:11;27.02;;;19.10;;
22939;SDS011;11636;52.086;5.090;2022-11-11T10:28:56;20.45;;;16.35;;
22939;SDS011;11636;52.086;5.090;2022-11-11T10:31:25;23.50;;;17.05;;
22939;SDS011;11636;52.086;5.090;2022-11-11T10:34:08;26.73;;;19.65;;
22939;SDS011;11636;52.086;5.090;2022-11-11T10:36:53;23.42;;;17.73;;
22939;SDS011;11636;52.086;5.090;2022-11-11T10:42:13;21.70;;;16.48;;
22939;SDS011;11636;52.086;5.090;2022-11-11T10:44:50;24.65;;;18.52;;
22939;SDS011;11636;52.086;5.090;2022-11-11T10:50:20;28.55;;;19.50;;
22939;SDS011;11636;52.086;5.090;2022-11-11T10:55:55;28.13;;;20.45;;
22939;SDS011;11636;52.086;5.090;2022-11-11T11:01:33;25.42;;;18.73;;
22939;SDS011;11636;52.086;5.090;2022-11-11T11:04:30;24.30;;;18.50;;
22939;SDS011;11636;52.086;5.090;2022-11-11T11:07:23;24.00;;;17.55;;
22939;SDS011;11636;52.086;5.090;2022-11-11T11:09:58;27.70;;;18.33;;
22939;SDS011;11636;52.086;5.090;2022-11-11T11:12:52;21.88;;;16.98;;
22939;SDS011;11636;52.086;5.090;2022-11-11T11:15:30;18.02;;;15.25;;
22939;SDS011;11636;52.086;5.090;2022-11-11T11:18:11;26.27;;;17.85;;
22939;SDS011;11636;52.086;5.090;2022-11-11T11:20:56;21.50;;;15.90;;
22939;SDS011;11636;52.086;5.090;2022-11-11T11:23:41;21.40;;;16.15;;
22939;SDS011;11636;52.086;5.090;2022-11-11T11:26:17;26.60;;;20.13;;
22939;SDS011;11636;52.086;5.090;2022-11-11T11:28:54;25.13;;;18.77;;
22939;SDS011;11636;52.086;5.090;2022-11-11T11:31:39;26.13;;;18.33;;
22939;SDS011;11636;52.086;5.090;2022-11-11T11:34:14;24.80;;;18.85;;
22939;SDS011;11636;52.086;5.090;2022-11-11T11:37:00;28.42;;;20.00;;
22939;SDS011;11636;52.086;5.090;2022-11-11T11:39:34;26.23;;;19.40;;
22939;SDS011;11636;52.086;5.090;2022-11-11T11:42:02;25.35;;;18.38;;
22939;SDS011;11636;52.086;5.090;2022-11-11T11:44:37;23.35;;;17.65;;
22939;SDS011;11636;52.086;5.090;2022-11-11T11:47:26;24.23;;;16.92;;
22939;SDS011;11636;52.086;5.090;2022-11-11T11:53:24;21.02;;;15.98;;
22939;SDS011;11636;52.086;5.090;2022-11-11T12:01:24;15.68;;;12.77;;
22939;SDS011;11636;52.086;5.090;2022-11-11T12:07:19;18.30;;;13.20;;
22939;SDS011;11636;52.086;5.090;2022-11-11T12:15:48;22.27;;;15.90;;
22939;SDS011;11636;52.086;5.090;2022-11-11T12:21:13;14.20;;;11.38;;
22939;SDS011;11636;52.086;5.090;2022-11-11T12:26:37;16.38;;;12.05;;
22939;SDS011;11636;52.086;5.090;2022-11-11T12:35:34;18.23;;;12.65;;
22939;SDS011;11636;52.086;5.090;2022-11-11T12:38:29;15.35;;;11.80;;
22939;SDS011;11636;52.086;5.090;2022-11-11T12:41:19;20.92;;;12.65;;
22939;SDS011;11636;52.086;5.090;2022-11-11T12:44:17;17.45;;;13.15;;
22939;SDS011;11636;52.086;5.090;2022-11-11T12:47:10;14.02;;;11.55;;
22939;SDS011;11636;52.086;5.090;2022-11-11T12:56:18;14.75;;;10.82;;
22939;SDS011;11636;52.086;5.090;2022-11-11T13:01:54;18.13;;;12.57;;
22939;SDS011;11636;52.086;5.090;2022-11-11T13:10:26;13.38;;;9.88;;
22939;SDS011;11636;52.086;5.090;2022-11-11T13:16:19;15.05;;;10.02;;
22939;SDS011;11636;52.086;5.090;2022-11-11T13:18:58;15.50;;;13.23;;
22939;SDS011;11636;52.086;5.090;2022-11-11T13:21:56;17.70;;;12.32;;
22939;SDS011;11636;52.086;5.090;2022-11-11T13:24:34;17.33;;;12.77;;
22939;SDS011;11636;52.086;5.090;2022-11-11T13:27:03;16.95;;;12.55;;
22939;SDS011;11636;52.086;5.090;2022-11-11T13:32:54;13.07;;;9.07;;
22939;SDS011;11636;52.086;5.090;2022-11-11T13:35:37;15.80;;;9.63;;
22939;SDS011;11636;52.086;5.090;2022-11-11T13:38:22;14.77;;;10.18;;
22939;SDS011;11636;52.086;5.090;2022-11-11T13:41:05;15.38;;;10.68;;
22939;SDS011;11636;52.086;5.090;2022-11-11T13:43:43;11.13;;;9.10;;
22939;SDS011;11636;52.086;5.090;2022-11-11T13:52:05;14.13;;;9.10;;
22939;SDS011;11636;52.086;5.090;2022-11-11T13:55:37;12.52;;;8.65;;
22939;SDS011;11636;52.086;5.090;2022-11-11T13:58:21;13.13;;;9.10;;
22939;SDS011;11636;52.086;5.090;2022-11-11T14:01:13;12.05;;;8.35;;
22939;SDS011;11636;52.086;5.090;2022-11-11T14:13:58;13.52;;;8.65;;
22939;SDS011;11636;52.086;5.090;2022-11-11T14:17:04;12.93;;;8.35;;
22939;SDS011;11636;52.086;5.090;2022-11-11T14:19:44;15.57;;;10.05;;
22939;SDS011;11636;52.086;5.090;2022-11-11T14:25:23;15.65;;;8.52;;
22939;SDS011;11636;52.086;5.090;2022-11-11T14:28:00;19.55;;;11.52;;
22939;SDS011;11636;52.086;5.090;2022-11-11T14:30:37;14.57;;;10.80;;
22939;SDS011;11636;52.086;5.090;2022-11-11T14:33:21;13.35;;;9.25;;
22939;SDS011;11636;52.086;5.090;2022-11-11T14:36:48;16.75;;;11.18;;
22939;SDS011;11636;52.086;5.090;2022-11-11T14:39:36;15.38;;;9.90;;
22939;SDS011;11636;52.086;5.090;2022-11-11T14:44:59;12.52;;;9.68;;
22939;SDS011;11636;52.086;5.090;2022-11-11T14:47:34;19.02;;;11.48;;
22939;SDS011;11636;52.086;5.090;2022-11-11T14:53:19;12.23;;;8.38;;
22939;SDS011;11636;52.086;5.090;2022-11-11T14:55:55;16.20;;;10.15;;
22939;SDS011;11636;52.086;5.090;2022-11-11T14:58:32;11.38;;;8.35;;
22939;SDS011;11636;52.086;5.090;2022-11-11T15:01:15;14.23;;;8.77;;
22939;SDS011;11636;52.086;5.090;2022-11-11T15:03:45;12.70;;;8.57;;
22939;SDS011;11636;52.086;5.090;2022-11-11T15:15:03;13.55;;;8.23;;
22939;SDS011;11636;52.086;5.090;2022-11-11T15:18:15;11.15;;;7.75;;
22939;SDS011;11636;52.086;5.090;2022-11-11T15:24:11;9.20;;;6.80;;
22939;SDS011;11636;52.086;5.090;2022-11-11T15:29:49;8.23;;;5.65;;
22939;SDS011;11636;52.086;5.090;2022-11-11T15:37:52;6.75;;;5.00;;
22939;SDS011;11636;52.086;5.090;2022-11-11T15:40:47;7.07;;;5.30;;
22939;SDS011;11636;52.086;5.090;2022-11-11T15:43:24;7.25;;;5.18;;
22939;SDS011;11636;52.086;5.090;2022-11-11T15:46:01;6.45;;;5.13;;
22939;SDS011;11636;52.086;5.090;2022-11-11T15:48:32;7.80;;;5.78;;
22939;SDS011;11636;52.086;5.090;2022-11-11T15:54:07;8.07;;;5.70;;
22939;SDS011;11636;52.086;5.090;2022-11-11T15:56:40;8.30;;;5.35;;
22939;SDS011;11636;52.086;5.090;2022-11-11T15:59:14;6.13;;;4.53;;
22939;SDS011;11636;52.086;5.090;2022-11-11T16:01:52;11.48;;;7.07;;
22939;SDS011;11636;52.086;5.090;2022-11-11T16:04:20;11.35;;;7.70;;
22939;SDS011;11636;52.086;5.090;2022-11-11T16:07:19;9.35;;;6.43;;
22939;SDS011;11636;52.086;5.090;2022-11-11T16:09:57;10.90;;;7.13;;
22939;SDS011;11636;52.086;5.090;2022-11-11T16:12:37;11.63;;;7.55;;
22939;SDS011;11636;52.086;5.090;2022-11-11T16:15:59;8.68;;;5.95;;
22939;SDS011;11636;52.086;5.090;2022-11-11T16:18:36;10.57;;;6.93;;
22939;SDS011;11636;52.086;5.090;2022-11-11T16:21:08;8.65;;;6.07;;
22939;SDS011;11636;52.086;5.090;2022-11-11T16:23:46;11.15;;;7.13;;
22939;SDS011;11636;52.086;5.090;2022-11-11T16:26:14;10.07;;;6.70;;
22939;SDS011;11636;52.086;5.090;2022-11-11T16:28:52;10.63;;;6.20;;
22939;SDS011;11636;52.086;5.090;2022-11-11T16:37:06;9.43;;;6.07;;
22939;SDS011;11636;52.086;5.090;2022-11-11T16:39:41;8.07;;;5.38;;
22939;SDS011;11636;52.086;5.090;2022-11-11T16:42:25;7.75;;;5.68;;
22939;SDS011;11636;52.086;5.090;2022-11-11T16:44:58;7.75;;;5.45;;
22939;SDS011;11636;52.086;5.090;2022-11-11T16:47:40;8.55;;;5.75;;
22939;SDS011;11636;52.086;5.090;2022-11-11T16:52:55;8.85;;;5.30;;
22939;SDS011;11636;52.086;5.090;2022-11-11T17:00:47;8.10;;;4.95;;
22939;SDS011;11636;52.086;5.090;2022-11-11T17:03:24;8.25;;;5.60;;
22939;SDS011;11636;52.086;5.090;2022-11-11T17:06:04;7.60;;;4.15;;
22939;SDS011;11636;52.086;5.090;2022-11-11T17:08:34;6.72;;;4.63;;
22939;SDS011;11636;52.086;5.090;2022-11-11T17:14:04;6.77;;;4.97;;
22939;SDS011;11636;52.086;5.090;2022-11-11T17:16:37;8.85;;;4.78;;
22939;SDS011;11636;52.086;5.090;2022-11-11T17:19:04;6.78;;;4.80;;
22939;SDS011;11636;52.086;5.090;2022-11-11T17:21:30;8.00;;;5.20;;
22939;SDS011;11636;52.086;5.090;2022-11-11T17:24:04;7.97;;;5.30;;
22939;SDS011;11636;52.086;5.090;2022-11-11T17:26:37;8.57;;;5.20;;
22939;SDS011;11636;52.086;5.090;2022-11-11T17:29:04;7.72;;;5.10;;
22939;SDS011;11636;52.086;5.090;2022-11-11T17:31:38;8.77;;;6.22;;
22939;SDS011;11636;52.086;5.090;2022-11-11T17:34:14;7.63;;;5.18;;
22939;SDS011;11636;52.086;5.090;2022-11-11T17:36:41;7.88;;;5.03;;
22939;SDS011;11636;52.086;5.090;2022-11-11T17:39:15;7.45;;;4.50;;
22939;SDS011;11636;52.086;5.090;2022-11-11T17:41:49;8.20;;;5.38;;
22939;SDS011;11636;52.086;5.090;2022-11-11T17:44:16;7.72;;;5.05;;
22939;SDS011;11636;52.086;5.090;2022-11-11T17:46:56;6.50;;;4.65;;